sensor_id;sensor_type;location;lat;lon;timestamp;P1;durP1;ratioP1;P2;durP2;ratioP2
7013;SDS011;3547;50.774;12.918;2023-06-19T02:33:36;5.40;;;3.70;;
7013;SDS011;3547;50.774;12.918;2023-06-19T02:36:03;4.22;;;3.30;;
7013;SDS011;3547;50.774;12.918;2023-06-19T02:41:15;5.75;;;3.97;;
7013;SDS011;3547;50.774;12.918;2023-06-19T02:43:47;5.30;;;3.40;;
7013;SDS011;3547;50.774;12.918;2023-06-19T08:07:13;4.72;;;3.72;;
7013;SDS011;3547;50.774;12.918;2023-06-19T11:09:51;4.70;;;4.30;;
7013;SDS011;3547;50.774;12.918;2023-06-19T11:18:45;5.38;;;4.40;;
7013;SDS011;3547;50.774;12.918;2023-06-19T11:21:15;5.22;;;4.75;;
7013;SDS011;3547;50.774;12.918;2023-06-19T11:23:41;7.05;;;5.20;;
7013;SDS011;3547;50.774;12.918;2023-06-19T11:26:13;5.68;;;4.93;;
7013;SDS011;3547;50.774;12.918;2023-06-19T11:28:47;5.10;;;4.60;;
7013;SDS011;3547;50.774;12.918;2023-06-19T11:31:16;8.73;;;5.18;;
7013;SDS011;3547;50.774;12.918;2023-06-19T11:33:44;5.57;;;4.78;;
7013;SDS011;3547;50.774;12.918;2023-06-19T11:36:20;5.15;;;4.50;;
7013;SDS011;3547;50.774;12.918;2023-06-19T11:38:48;6.57;;;5.00;;
7013;SDS011;3547;50.774;12.918;2023-06-19T11:41:24;7.60;;;4.88;;
7013;SDS011;3547;50.774;12.918;2023-06-19T11:43:59;5.45;;;4.88;;
7013;SDS011;3547;50.774;12.918;2023-06-19T11:46:29;5.78;;;4.72;;
7013;SDS011;3547;50.774;12.918;2023-06-19T11:49:10;5.18;;;4.68;;
7013;SDS011;3547;50.774;12.918;2023-06-19T11:51:42;5.20;;;4.57;;
7013;SDS011;3547;50.774;12.918;2023-06-19T11:54:08;5.90;;;4.97;;
7013;SDS011;3547;50.774;12.918;2023-06-19T11:56:37;5.70;;;5.05;;
7013;SDS011;3547;50.774;12.918;2023-06-19T11:59:05;8.00;;;5.03;;
7013;SDS011;3547;50.774;12.918;2023-06-19T12:04:54;5.30;;;4.78;;
7013;SDS011;3547;50.774;12.918;2023-06-19T12:07:23;5.90;;;5.30;;
7013;SDS011;3547;50.774;12.918;2023-06-19T12:09:51;6.57;;;5.25;;
7013;SDS011;3547;50.774;12.918;2023-06-19T12:12:22;6.53;;;5.22;;
7013;SDS011;3547;50.774;12.918;2023-06-19T12:14:48;6.47;;;5.50;;
7013;SDS011;3547;50.774;12.918;2023-06-19T12:17:35;5.57;;;4.97;;
7013;SDS011;3547;50.774;12.918;2023-06-19T12:23:27;6.25;;;5.65;;
7013;SDS011;3547;50.774;12.918;2023-06-19T12:25:53;9.23;;;5.40;;
7013;SDS011;3547;50.774;12.918;2023-06-19T12:28:22;9.30;;;5.30;;
7013;SDS011;3547;50.774;12.918;2023-06-19T12:30:52;6.43;;;5.45;;
7013;SDS011;3547;50.774;12.918;2023-06-19T12:33:27;6.53;;;4.75;;
7013;SDS011;3547;50.774;12.918;2023-06-19T12:35:59;8.10;;;5.00;;
7013;SDS011;3547;50.774;12.918;2023-06-19T12:38:40;9.40;;;5.03;;
7013;SDS011;3547;50.774;12.918;2023-06-19T12:41:19;5.25;;;4.75;;
7013;SDS011;3547;50.774;12.918;2023-06-19T12:43:46;6.53;;;5.28;;
7013;SDS011;3547;50.774;12.918;2023-06-19T12:46:13;7.65;;;4.72;;
7013;SDS011;3547;50.774;12.918;2023-06-19T12:48:40;5.05;;;4.65;;
7013;SDS011;3547;50.774;12.918;2023-06-19T12:51:17;6.68;;;5.00;;
7013;SDS011;3547;50.774;12.918;2023-06-19T12:57:07;5.82;;;5.28;;
7013;SDS011;3547;50.774;12.918;2023-06-19T12:59:36;5.55;;;4.97;;
7013;SDS011;3547;50.774;12.918;2023-06-19T13:02:02;5.30;;;4.65;;
7013;SDS011;3547;50.774;12.918;2023-06-19T13:04:32;5.30;;;4.80;;
7013;SDS011;3547;50.774;12.918;2023-06-19T13:07:00;5.95;;;5.30;;
7013;SDS011;3547;50.774;12.918;2023-06-19T13:09:29;5.88;;;5.25;;
7013;SDS011;3547;50.774;12.918;2023-06-19T13:11:55;5.72;;;5.07;;
7013;SDS011;3547;50.774;12.918;2023-06-19T13:14:21;5.85;;;4.68;;
7013;SDS011;3547;50.774;12.918;2023-06-19T13:16:48;7.38;;;4.50;;
7013;SDS011;3547;50.774;12.918;2023-06-19T13:22:38;4.80;;;4.05;;
7013;SDS011;3547;50.774;12.918;2023-06-19T13:25:06;6.72;;;4.28;;
7013;SDS011;3547;50.774;12.918;2023-06-19T13:30:56;4.70;;;4.28;;
7013;SDS011;3547;50.774;12.918;2023-06-19T13:33:23;5.25;;;4.75;;
7013;SDS011;3547;50.774;12.918;2023-06-19T13:35:49;5.85;;;5.25;;
7013;SDS011;3547;50.774;12.918;2023-06-19T13:38:16;4.68;;;4.15;;
7013;SDS011;3547;50.774;12.918;2023-06-19T13:41:09;6.35;;;4.18;;
7013;SDS011;3547;50.774;12.918;2023-06-19T13:43:35;5.47;;;4.57;;
7013;SDS011;3547;50.774;12.918;2023-06-19T13:46:02;4.85;;;4.43;;
7013;SDS011;3547;50.774;12.918;2023-06-19T13:48:30;5.30;;;4.75;;
7013;SDS011;3547;50.774;12.918;2023-06-19T13:50:56;5.40;;;4.90;;
7013;SDS011;3547;50.774;12.918;2023-06-19T13:53:25;5.35;;;4.50;;
7013;SDS011;3547;50.774;12.918;2023-06-19T13:55:54;5.35;;;4.85;;
7013;SDS011;3547;50.774;12.918;2023-06-19T13:58:20;4.82;;;4.28;;
7013;SDS011;3547;50.774;12.918;2023-06-19T14:00:47;6.10;;;4.53;;
7013;SDS011;3547;50.774;12.918;2023-06-19T14:03:18;4.60;;;4.20;;
7013;SDS011;3547;50.774;12.918;2023-06-19T14:05:44;4.35;;;3.95;;
7013;SDS011;3547;50.774;12.918;2023-06-19T14:08:10;7.22;;;4.50;;
7013;SDS011;3547;50.774;12.918;2023-06-19T14:10:36;4.95;;;4.55;;
7013;SDS011;3547;50.774;12.918;2023-06-19T14:13:05;5.63;;;4.65;;
7013;SDS011;3547;50.774;12.918;2023-06-19T14:15:34;4.70;;;4.28;;
7013;SDS011;3547;50.774;12.918;2023-06-19T14:18:01;5.32;;;4.47;;
7013;SDS011;3547;50.774;12.918;2023-06-19T14:20:28;5.65;;;4.68;;
7013;SDS011;3547;50.774;12.918;2023-06-19T14:22:54;5.57;;;4.30;;
7013;SDS011;3547;50.774;12.918;2023-06-19T14:25:20;4.50;;;4.10;;
7013;SDS011;3547;50.774;12.918;2023-06-19T14:27:46;4.57;;;4.18;;
7013;SDS011;3547;50.774;12.918;2023-06-19T14:30:13;4.82;;;4.18;;
7013;SDS011;3547;50.774;12.918;2023-06-19T14:32:40;7.32;;;4.93;;
7013;SDS011;3547;50.774;12.918;2023-06-19T15:11:45;5.53;;;4.50;;
7013;SDS011;3547;50.774;12.918;2023-06-19T15:14:20;4.03;;;3.72;;
7013;SDS011;3547;50.774;12.918;2023-06-19T15:16:47;4.55;;;4.15;;
7013;SDS011;3547;50.774;12.918;2023-06-19T15:27:19;4.75;;;4.30;;
7013;SDS011;3547;50.774;12.918;2023-06-19T15:29:46;4.25;;;3.85;;
7013;SDS011;3547;50.774;12.918;2023-06-19T15:32:13;4.18;;;3.80;;
7013;SDS011;3547;50.774;12.918;2023-06-19T15:34:41;4.35;;;3.95;;
7013;SDS011;3547;50.774;12.918;2023-06-19T15:37:15;3.75;;;3.45;;
7013;SDS011;3547;50.774;12.918;2023-06-19T15:39:45;6.03;;;4.05;;
7013;SDS011;3547;50.774;12.918;2023-06-19T15:42:11;4.13;;;3.83;;
7013;SDS011;3547;50.774;12.918;2023-06-19T15:44:41;3.65;;;3.35;;
7013;SDS011;3547;50.774;12.918;2023-06-19T15:49:46;4.40;;;4.00;;
7013;SDS011;3547;50.774;12.918;2023-06-19T15:55:29;5.88;;;3.47;;
7013;SDS011;3547;50.774;12.918;2023-06-19T16:03:24;3.47;;;3.17;;
7013;SDS011;3547;50.774;12.918;2023-06-19T16:05:52;3.65;;;3.35;;
7013;SDS011;3547;50.774;12.918;2023-06-19T16:08:21;3.65;;;3.35;;
7013;SDS011;3547;50.774;12.918;2023-06-19T16:10:51;4.03;;;3.60;;
7013;SDS011;3547;50.774;12.918;2023-06-19T16:13:18;3.72;;;3.42;;
7013;SDS011;3547;50.774;12.918;2023-06-19T16:15:44;3.25;;;2.95;;
7013;SDS011;3547;50.774;12.918;2023-06-19T16:18:21;2.95;;;2.50;;
7013;SDS011;3547;50.774;12.918;2023-06-19T16:20:48;3.88;;;3.50;;
7013;SDS011;3547;50.774;12.918;2023-06-19T16:23:16;3.78;;;3.47;;
7013;SDS011;3547;50.774;12.918;2023-06-19T16:25:43;3.70;;;3.40;;
7013;SDS011;3547;50.774;12.918;2023-06-19T16:28:10;2.78;;;2.58;;
7013;SDS011;3547;50.774;12.918;2023-06-19T16:30:36;3.35;;;3.10;;
7013;SDS011;3547;50.774;12.918;2023-06-19T16:33:05;3.92;;;3.17;;
7013;SDS011;3547;50.774;12.918;2023-06-19T16:35:36;3.42;;;3.10;;
7013;SDS011;3547;50.774;12.918;2023-06-19T16:38:06;3.72;;;3.00;;
7013;SDS011;3547;50.774;12.918;2023-06-19T16:40:32;3.17;;;2.90;;
7013;SDS011;3547;50.774;12.918;2023-06-19T16:42:59;3.33;;;3.08;;
7013;SDS011;3547;50.774;12.918;2023-06-19T16:45:25;2.97;;;2.72;;
7013;SDS011;3547;50.774;12.918;2023-06-19T16:47:54;3.45;;;3.15;;
7013;SDS011;3547;50.774;12.918;2023-06-19T16:50:24;5.22;;;3.10;;
7013;SDS011;3547;50.774;12.918;2023-06-19T16:52:55;3.55;;;3.25;;
7013;SDS011;3547;50.774;12.918;2023-06-19T16:55:21;3.30;;;3.00;;
7013;SDS011;3547;50.774;12.918;2023-06-19T17:01:13;3.80;;;3.45;;
7013;SDS011;3547;50.774;12.918;2023-06-19T17:03:40;3.53;;;3.22;;
7013;SDS011;3547;50.774;12.918;2023-06-19T17:06:06;4.72;;;3.13;;
7013;SDS011;3547;50.774;12.918;2023-06-19T17:08:33;3.33;;;3.03;;
7013;SDS011;3547;50.774;12.918;2023-06-19T17:11:02;3.40;;;3.10;;
7013;SDS011;3547;50.774;12.918;2023-06-19T17:13:31;3.58;;;3.20;;
7013;SDS011;3547;50.774;12.918;2023-06-19T17:16:06;3.90;;;3.60;;
7013;SDS011;3547;50.774;12.918;2023-06-19T17:18:33;4.57;;;3.80;;
7013;SDS011;3547;50.774;12.918;2023-06-19T17:21:03;3.35;;;3.05;;
7013;SDS011;3547;50.774;12.918;2023-06-19T17:23:29;3.47;;;3.17;;
7013;SDS011;3547;50.774;12.918;2023-06-19T17:25:59;3.58;;;3.28;;
7013;SDS011;3547;50.774;12.918;2023-06-19T17:28:32;3.85;;;3.53;;
7013;SDS011;3547;50.774;12.918;2023-06-19T17:31:10;4.68;;;3.20;;
7013;SDS011;3547;50.774;12.918;2023-06-19T17:33:42;3.63;;;3.33;;
7013;SDS011;3547;50.774;12.918;2023-06-19T17:36:16;3.53;;;3.22;;
7013;SDS011;3547;50.774;12.918;2023-06-19T17:38:49;3.38;;;3.08;;
7013;SDS011;3547;50.774;12.918;2023-06-19T17:41:16;3.67;;;3.38;;
7013;SDS011;3547;50.774;12.918;2023-06-19T17:47:20;4.85;;;3.03;;
7013;SDS011;3547;50.774;12.918;2023-06-19T17:49:46;5.88;;;3.15;;
7013;SDS011;3547;50.774;12.918;2023-06-19T17:52:16;4.30;;;3.78;;
7013;SDS011;3547;50.774;12.918;2023-06-19T17:54:42;4.18;;;3.60;;
7013;SDS011;3547;50.774;12.918;2023-06-19T17:57:16;4.15;;;3.75;;
7013;SDS011;3547;50.774;12.918;2023-06-19T17:59:42;5.20;;;4.05;;
7013;SDS011;3547;50.774;12.918;2023-06-19T18:12:00;3.58;;;3.28;;
